sensor_id;sensor_type;location;lat;lon;timestamp;P1;durP1;ratioP1;P2;durP2;ratioP2
47617;SDS011;33336;36.728;-4.414;2022-10-16T00:00:44;10.13;;;2.28;;
47617;SDS011;33336;36.728;-4.414;2022-10-16T00:05:48;6.60;;;2.20;;
47617;SDS011;33336;36.728;-4.414;2022-10-16T00:10:52;3.90;;;1.92;;
47617;SDS011;33336;36.728;-4.414;2022-10-16T00:16:01;7.80;;;2.55;;
47617;SDS011;33336;36.728;-4.414;2022-10-16T00:21:05;8.40;;;2.00;;
47617;SDS011;33336;36.728;-4.414;2022-10-16T00:26:16;10.25;;;3.22;;
47617;SDS011;33336;36.728;-4.414;2022-10-16T00:31:20;6.07;;;2.63;;
47617;SDS011;33336;36.728;-4.414;2022-10-16T00:36:25;7.43;;;2.50;;
47617;SDS011;33336;36.728;-4.414;2022-10-16T00:41:30;5.20;;;1.75;;
47617;SDS011;33336;36.728;-4.414;2022-10-16T00:46:35;8.02;;;2.65;;
47617;SDS011;33336;36.728;-4.414;2022-10-16T00:51:40;7.13;;;1.75;;
47617;SDS011;33336;36.728;-4.414;2022-10-16T00:56:46;4.97;;;1.90;;
47617;SDS011;33336;36.728;-4.414;2022-10-16T01:01:49;7.10;;;1.75;;
47617;SDS011;33336;36.728;-4.414;2022-10-16T01:06:54;7.32;;;1.63;;
47617;SDS011;33336;36.728;-4.414;2022-10-16T01:12:09;9.80;;;2.30;;
47617;SDS011;33336;36.728;-4.414;2022-10-16T01:17:17;7.07;;;1.73;;
47617;SDS011;33336;36.728;-4.414;2022-10-16T01:22:33;5.13;;;1.30;;
47617;SDS011;33336;36.728;-4.414;2022-10-16T01:27:43;7.65;;;1.83;;
47617;SDS011;33336;36.728;-4.414;2022-10-16T01:32:49;5.78;;;1.15;;
47617;SDS011;33336;36.728;-4.414;2022-10-16T01:37:56;13.80;;;2.38;;
47617;SDS011;33336;36.728;-4.414;2022-10-16T01:43:06;9.25;;;1.65;;
47617;SDS011;33336;36.728;-4.414;2022-10-16T01:48:16;10.82;;;1.77;;
47617;SDS011;33336;36.728;-4.414;2022-10-16T01:53:20;9.27;;;1.60;;
47617;SDS011;33336;36.728;-4.414;2022-10-16T01:58:28;11.35;;;1.83;;
47617;SDS011;33336;36.728;-4.414;2022-10-16T02:03:36;11.93;;;1.80;;
47617;SDS011;33336;36.728;-4.414;2022-10-16T02:08:40;7.72;;;1.88;;
47617;SDS011;33336;36.728;-4.414;2022-10-16T02:13:46;8.65;;;1.70;;
47617;SDS011;33336;36.728;-4.414;2022-10-16T02:18:53;9.20;;;1.80;;
47617;SDS011;33336;36.728;-4.414;2022-10-16T02:23:57;11.45;;;1.90;;
47617;SDS011;33336;36.728;-4.414;2022-10-16T02:29:07;5.93;;;2.10;;
47617;SDS011;33336;36.728;-4.414;2022-10-16T02:34:14;5.65;;;1.90;;
47617;SDS011;33336;36.728;-4.414;2022-10-16T02:39:20;11.23;;;1.60;;
47617;SDS011;33336;36.728;-4.414;2022-10-16T02:44:25;10.38;;;2.03;;
47617;SDS011;33336;36.728;-4.414;2022-10-16T02:49:28;7.32;;;1.42;;
47617;SDS011;33336;36.728;-4.414;2022-10-16T02:54:30;9.15;;;1.50;;
47617;SDS011;33336;36.728;-4.414;2022-10-16T02:59:34;9.98;;;1.85;;
47617;SDS011;33336;36.728;-4.414;2022-10-16T03:04:38;4.07;;;1.52;;
47617;SDS011;33336;36.728;-4.414;2022-10-16T03:09:41;11.48;;;2.38;;
47617;SDS011;33336;36.728;-4.414;2022-10-16T03:14:46;13.10;;;2.47;;
47617;SDS011;33336;36.728;-4.414;2022-10-16T03:19:49;6.28;;;1.58;;
47617;SDS011;33336;36.728;-4.414;2022-10-16T03:24:52;8.45;;;1.42;;
47617;SDS011;33336;36.728;-4.414;2022-10-16T03:29:56;13.43;;;1.65;;
47617;SDS011;33336;36.728;-4.414;2022-10-16T03:35:00;8.45;;;1.92;;
47617;SDS011;33336;36.728;-4.414;2022-10-16T03:40:03;16.65;;;3.45;;
47617;SDS011;33336;36.728;-4.414;2022-10-16T03:45:09;12.40;;;1.90;;
47617;SDS011;33336;36.728;-4.414;2022-10-16T03:50:12;7.55;;;2.17;;
47617;SDS011;33336;36.728;-4.414;2022-10-16T03:55:15;13.30;;;2.22;;
47617;SDS011;33336;36.728;-4.414;2022-10-16T04:00:19;6.95;;;1.70;;
47617;SDS011;33336;36.728;-4.414;2022-10-16T04:05:23;7.07;;;2.15;;
47617;SDS011;33336;36.728;-4.414;2022-10-16T04:10:26;8.30;;;1.42;;
47617;SDS011;33336;36.728;-4.414;2022-10-16T04:15:31;10.95;;;1.67;;
47617;SDS011;33336;36.728;-4.414;2022-10-16T04:20:33;11.30;;;2.03;;
47617;SDS011;33336;36.728;-4.414;2022-10-16T04:25:37;9.73;;;2.30;;
47617;SDS011;33336;36.728;-4.414;2022-10-16T04:30:41;7.22;;;1.83;;
47617;SDS011;33336;36.728;-4.414;2022-10-16T04:35:44;7.38;;;1.75;;
47617;SDS011;33336;36.728;-4.414;2022-10-16T04:40:47;7.32;;;2.35;;
47617;SDS011;33336;36.728;-4.414;2022-10-16T04:45:52;9.38;;;1.88;;
47617;SDS011;33336;36.728;-4.414;2022-10-16T04:50:55;8.65;;;1.88;;
47617;SDS011;33336;36.728;-4.414;2022-10-16T04:55:58;10.60;;;2.00;;
47617;SDS011;33336;36.728;-4.414;2022-10-16T05:01:02;16.33;;;1.90;;
47617;SDS011;33336;36.728;-4.414;2022-10-16T05:06:05;12.63;;;2.15;;
47617;SDS011;33336;36.728;-4.414;2022-10-16T05:11:08;12.02;;;1.85;;
47617;SDS011;33336;36.728;-4.414;2022-10-16T05:16:13;10.07;;;1.92;;
47617;SDS011;33336;36.728;-4.414;2022-10-16T05:21:15;10.05;;;1.70;;
47617;SDS011;33336;36.728;-4.414;2022-10-16T05:26:19;9.98;;;2.47;;
47617;SDS011;33336;36.728;-4.414;2022-10-16T05:31:23;11.57;;;2.20;;
47617;SDS011;33336;36.728;-4.414;2022-10-16T05:36:27;14.80;;;2.10;;
47617;SDS011;33336;36.728;-4.414;2022-10-16T05:41:30;8.32;;;1.90;;
47617;SDS011;33336;36.728;-4.414;2022-10-16T05:46:36;10.77;;;2.00;;
47617;SDS011;33336;36.728;-4.414;2022-10-16T05:51:38;10.45;;;1.73;;
47617;SDS011;33336;36.728;-4.414;2022-10-16T05:56:42;8.90;;;1.77;;
47617;SDS011;33336;36.728;-4.414;2022-10-16T06:01:46;7.40;;;1.77;;
47617;SDS011;33336;36.728;-4.414;2022-10-16T06:06:50;11.85;;;2.45;;
47617;SDS011;33336;36.728;-4.414;2022-10-16T06:11:53;9.63;;;1.83;;
47617;SDS011;33336;36.728;-4.414;2022-10-16T06:16:57;8.85;;;1.90;;
47617;SDS011;33336;36.728;-4.414;2022-10-16T06:22:00;11.00;;;2.30;;
47617;SDS011;33336;36.728;-4.414;2022-10-16T06:27:05;6.30;;;1.83;;
47617;SDS011;33336;36.728;-4.414;2022-10-16T06:32:09;11.05;;;1.90;;
47617;SDS011;33336;36.728;-4.414;2022-10-16T06:37:13;11.13;;;1.80;;
47617;SDS011;33336;36.728;-4.414;2022-10-16T06:42:16;7.95;;;1.80;;
47617;SDS011;33336;36.728;-4.414;2022-10-16T06:47:21;13.20;;;2.08;;
47617;SDS011;33336;36.728;-4.414;2022-10-16T06:52:23;6.22;;;1.60;;
47617;SDS011;33336;36.728;-4.414;2022-10-16T06:57:27;8.15;;;2.47;;
47617;SDS011;33336;36.728;-4.414;2022-10-16T07:02:31;10.50;;;2.20;;
47617;SDS011;33336;36.728;-4.414;2022-10-16T07:07:34;7.13;;;1.92;;
47617;SDS011;33336;36.728;-4.414;2022-10-16T07:12:37;8.65;;;2.58;;
47617;SDS011;33336;36.728;-4.414;2022-10-16T07:17:41;11.73;;;3.17;;
47617;SDS011;33336;36.728;-4.414;2022-10-16T07:22:44;10.27;;;2.17;;
47617;SDS011;33336;36.728;-4.414;2022-10-16T07:27:47;13.25;;;1.83;;
47617;SDS011;33336;36.728;-4.414;2022-10-16T07:32:51;10.65;;;2.00;;
47617;SDS011;33336;36.728;-4.414;2022-10-16T07:37:55;10.50;;;2.33;;
47617;SDS011;33336;36.728;-4.414;2022-10-16T07:42:58;11.57;;;2.63;;
47617;SDS011;33336;36.728;-4.414;2022-10-16T07:48:05;8.82;;;2.53;;
47617;SDS011;33336;36.728;-4.414;2022-10-16T07:53:07;9.32;;;3.78;;
47617;SDS011;33336;36.728;-4.414;2022-10-16T07:58:11;16.58;;;2.65;;
47617;SDS011;33336;36.728;-4.414;2022-10-16T08:03:15;13.32;;;2.75;;
47617;SDS011;33336;36.728;-4.414;2022-10-16T08:08:18;15.95;;;2.50;;
47617;SDS011;33336;36.728;-4.414;2022-10-16T08:13:21;13.43;;;3.10;;
47617;SDS011;33336;36.728;-4.414;2022-10-16T08:18:25;19.85;;;4.25;;
47617;SDS011;33336;36.728;-4.414;2022-10-16T08:23:28;11.98;;;3.10;;
47617;SDS011;33336;36.728;-4.414;2022-10-16T08:28:32;13.73;;;3.78;;
47617;SDS011;33336;36.728;-4.414;2022-10-16T08:33:37;8.20;;;2.65;;
47617;SDS011;33336;36.728;-4.414;2022-10-16T08:38:40;7.30;;;2.63;;
47617;SDS011;33336;36.728;-4.414;2022-10-16T08:43:45;13.45;;;2.78;;
47617;SDS011;33336;36.728;-4.414;2022-10-16T08:49:11;13.88;;;3.03;;
47617;SDS011;33336;36.728;-4.414;2022-10-16T08:54:19;13.07;;;2.90;;
47617;SDS011;33336;36.728;-4.414;2022-10-16T08:59:28;9.23;;;2.70;;
47617;SDS011;33336;36.728;-4.414;2022-10-16T09:04:39;16.08;;;2.80;;
47617;SDS011;33336;36.728;-4.414;2022-10-16T09:10:03;9.07;;;2.30;;
47617;SDS011;33336;36.728;-4.414;2022-10-16T09:15:20;16.52;;;2.45;;
47617;SDS011;33336;36.728;-4.414;2022-10-16T09:20:33;6.40;;;2.28;;
47617;SDS011;33336;36.728;-4.414;2022-10-16T09:25:43;12.50;;;2.08;;
47617;SDS011;33336;36.728;-4.414;2022-10-16T09:30:51;10.20;;;1.77;;
47617;SDS011;33336;36.728;-4.414;2022-10-16T09:35:58;9.63;;;2.38;;
47617;SDS011;33336;36.728;-4.414;2022-10-16T09:41:03;8.00;;;1.90;;
47617;SDS011;33336;36.728;-4.414;2022-10-16T09:51:39;6.97;;;2.20;;
47617;SDS011;33336;36.728;-4.414;2022-10-16T09:56:42;12.30;;;3.17;;
47617;SDS011;33336;36.728;-4.414;2022-10-16T10:01:48;16.25;;;2.15;;
47617;SDS011;33336;36.728;-4.414;2022-10-16T10:06:53;10.32;;;2.03;;
47617;SDS011;33336;36.728;-4.414;2022-10-16T10:11:58;10.52;;;3.03;;
47617;SDS011;33336;36.728;-4.414;2022-10-16T10:17:09;13.27;;;3.10;;
47617;SDS011;33336;36.728;-4.414;2022-10-16T10:22:21;12.55;;;2.88;;
47617;SDS011;33336;36.728;-4.414;2022-10-16T10:27:32;15.73;;;3.20;;
47617;SDS011;33336;36.728;-4.414;2022-10-16T10:32:44;18.23;;;3.72;;
47617;SDS011;33336;36.728;-4.414;2022-10-16T10:38:00;9.40;;;2.67;;
47617;SDS011;33336;36.728;-4.414;2022-10-16T10:43:14;8.63;;;2.35;;
47617;SDS011;33336;36.728;-4.414;2022-10-16T10:54:02;9.20;;;2.00;;
47617;SDS011;33336;36.728;-4.414;2022-10-16T11:10:12;14.75;;;2.88;;
47617;SDS011;33336;36.728;-4.414;2022-10-16T11:15:20;8.82;;;2.45;;
47617;SDS011;33336;36.728;-4.414;2022-10-16T11:20:26;9.90;;;2.35;;
47617;SDS011;33336;36.728;-4.414;2022-10-16T11:25:35;9.88;;;2.30;;
47617;SDS011;33336;36.728;-4.414;2022-10-16T11:30:43;13.80;;;2.63;;
47617;SDS011;33336;36.728;-4.414;2022-10-16T11:35:53;8.73;;;3.40;;
47617;SDS011;33336;36.728;-4.414;2022-10-16T11:41:01;8.95;;;2.75;;
47617;SDS011;33336;36.728;-4.414;2022-10-16T11:46:15;14.18;;;2.72;;
47617;SDS011;33336;36.728;-4.414;2022-10-16T11:51:21;9.23;;;2.85;;
47617;SDS011;33336;36.728;-4.414;2022-10-16T11:56:35;9.68;;;2.13;;
47617;SDS011;33336;36.728;-4.414;2022-10-16T12:01:41;17.15;;;2.63;;
47617;SDS011;33336;36.728;-4.414;2022-10-16T12:06:47;8.93;;;2.55;;
47617;SDS011;33336;36.728;-4.414;2022-10-16T12:11:54;26.55;;;3.08;;
47617;SDS011;33336;36.728;-4.414;2022-10-16T12:16:58;14.02;;;3.45;;
47617;SDS011;33336;36.728;-4.414;2022-10-16T12:22:02;15.05;;;3.17;;
47617;SDS011;33336;36.728;-4.414;2022-10-16T12:27:19;9.07;;;2.95;;
47617;SDS011;33336;36.728;-4.414;2022-10-16T12:32:30;11.60;;;3.70;;
47617;SDS011;33336;36.728;-4.414;2022-10-16T12:37:35;15.55;;;3.17;;
47617;SDS011;33336;36.728;-4.414;2022-10-16T12:42:41;19.58;;;3.97;;
47617;SDS011;33336;36.728;-4.414;2022-10-16T12:47:47;17.52;;;3.17;;
47617;SDS011;33336;36.728;-4.414;2022-10-16T12:52:51;13.10;;;3.30;;
47617;SDS011;33336;36.728;-4.414;2022-10-16T12:58:03;11.98;;;4.10;;
47617;SDS011;33336;36.728;-4.414;2022-10-16T13:09:18;11.65;;;3.20;;
47617;SDS011;33336;36.728;-4.414;2022-10-16T13:20:06;8.48;;;2.40;;
47617;SDS011;33336;36.728;-4.414;2022-10-16T13:25:22;11.38;;;3.00;;
47617;SDS011;33336;36.728;-4.414;2022-10-16T13:30:34;16.60;;;3.35;;
47617;SDS011;33336;36.728;-4.414;2022-10-16T13:35:47;19.60;;;3.70;;
47617;SDS011;33336;36.728;-4.414;2022-10-16T13:40:53;20.65;;;4.13;;
47617;SDS011;33336;36.728;-4.414;2022-10-16T13:45:59;10.50;;;3.50;;
47617;SDS011;33336;36.728;-4.414;2022-10-16T13:51:06;17.75;;;3.80;;
47617;SDS011;33336;36.728;-4.414;2022-10-16T13:56:14;12.68;;;3.20;;
47617;SDS011;33336;36.728;-4.414;2022-10-16T14:01:23;14.07;;;2.85;;
47617;SDS011;33336;36.728;-4.414;2022-10-16T14:06:28;10.18;;;3.50;;
47617;SDS011;33336;36.728;-4.414;2022-10-16T14:11:32;8.35;;;3.60;;
47617;SDS011;33336;36.728;-4.414;2022-10-16T14:16:38;15.70;;;2.97;;
47617;SDS011;33336;36.728;-4.414;2022-10-16T14:21:45;13.77;;;2.75;;
47617;SDS011;33336;36.728;-4.414;2022-10-16T14:26:48;15.13;;;2.95;;
47617;SDS011;33336;36.728;-4.414;2022-10-16T14:31:56;7.00;;;2.53;;
47617;SDS011;33336;36.728;-4.414;2022-10-16T14:37:00;10.55;;;2.75;;
47617;SDS011;33336;36.728;-4.414;2022-10-16T14:42:13;15.10;;;3.53;;
47617;SDS011;33336;36.728;-4.414;2022-10-16T14:47:21;9.38;;;2.13;;
47617;SDS011;33336;36.728;-4.414;2022-10-16T14:52:28;11.30;;;2.47;;
47617;SDS011;33336;36.728;-4.414;2022-10-16T14:57:31;10.70;;;2.97;;
47617;SDS011;33336;36.728;-4.414;2022-10-16T15:02:39;11.80;;;2.47;;
47617;SDS011;33336;36.728;-4.414;2022-10-16T15:07:43;10.55;;;2.25;;
47617;SDS011;33336;36.728;-4.414;2022-10-16T15:12:47;10.32;;;1.98;;
47617;SDS011;33336;36.728;-4.414;2022-10-16T15:17:52;11.10;;;2.40;;
47617;SDS011;33336;36.728;-4.414;2022-10-16T15:22:58;7.95;;;2.00;;
47617;SDS011;33336;36.728;-4.414;2022-10-16T15:28:02;11.57;;;1.73;;
47617;SDS011;33336;36.728;-4.414;2022-10-16T15:33:11;4.50;;;2.70;;
47617;SDS011;33336;36.728;-4.414;2022-10-16T15:38:17;11.15;;;2.40;;
47617;SDS011;33336;36.728;-4.414;2022-10-16T15:43:25;7.30;;;1.80;;
47617;SDS011;33336;36.728;-4.414;2022-10-16T15:48:30;8.93;;;2.53;;
47617;SDS011;33336;36.728;-4.414;2022-10-16T15:53:34;10.00;;;2.67;;
47617;SDS011;33336;36.728;-4.414;2022-10-16T15:58:37;9.48;;;2.40;;
47617;SDS011;33336;36.728;-4.414;2022-10-16T16:03:42;10.50;;;2.20;;
47617;SDS011;33336;36.728;-4.414;2022-10-16T16:08:45;9.83;;;2.40;;
47617;SDS011;33336;36.728;-4.414;2022-10-16T16:13:49;10.98;;;2.42;;
47617;SDS011;33336;36.728;-4.414;2022-10-16T16:18:53;11.95;;;2.65;;
47617;SDS011;33336;36.728;-4.414;2022-10-16T16:23:57;7.68;;;3.58;;
47617;SDS011;33336;36.728;-4.414;2022-10-16T16:29:00;9.80;;;2.05;;
47617;SDS011;33336;36.728;-4.414;2022-10-16T16:34:04;9.88;;;2.30;;
47617;SDS011;33336;36.728;-4.414;2022-10-16T16:39:07;5.85;;;1.90;;
47617;SDS011;33336;36.728;-4.414;2022-10-16T16:44:13;8.88;;;2.47;;
47617;SDS011;33336;36.728;-4.414;2022-10-16T16:49:18;5.90;;;2.20;;
47617;SDS011;33336;36.728;-4.414;2022-10-16T16:54:20;10.00;;;1.95;;
47617;SDS011;33336;36.728;-4.414;2022-10-16T16:59:23;14.02;;;2.95;;
47617;SDS011;33336;36.728;-4.414;2022-10-16T17:04:28;16.02;;;3.08;;
47617;SDS011;33336;36.728;-4.414;2022-10-16T17:09:31;19.05;;;3.55;;
47617;SDS011;33336;36.728;-4.414;2022-10-16T17:14:35;8.95;;;2.72;;
47617;SDS011;33336;36.728;-4.414;2022-10-16T17:19:39;12.32;;;3.40;;
47617;SDS011;33336;36.728;-4.414;2022-10-16T17:24:42;12.25;;;3.38;;
47617;SDS011;33336;36.728;-4.414;2022-10-16T17:29:45;13.95;;;3.53;;
47617;SDS011;33336;36.728;-4.414;2022-10-16T17:34:53;16.50;;;3.67;;
47617;SDS011;33336;36.728;-4.414;2022-10-16T17:39:56;11.50;;;3.75;;
47617;SDS011;33336;36.728;-4.414;2022-10-16T17:45:00;16.85;;;3.80;;
47617;SDS011;33336;36.728;-4.414;2022-10-16T17:50:04;13.88;;;4.10;;
47617;SDS011;33336;36.728;-4.414;2022-10-16T17:55:08;10.00;;;3.10;;
47617;SDS011;33336;36.728;-4.414;2022-10-16T18:00:11;14.07;;;2.88;;
47617;SDS011;33336;36.728;-4.414;2022-10-16T18:05:16;12.63;;;3.28;;
47617;SDS011;33336;36.728;-4.414;2022-10-16T18:10:19;8.88;;;3.00;;
47617;SDS011;33336;36.728;-4.414;2022-10-16T18:15:23;10.30;;;4.07;;
47617;SDS011;33336;36.728;-4.414;2022-10-16T18:20:27;17.05;;;3.65;;
47617;SDS011;33336;36.728;-4.414;2022-10-16T18:25:31;13.80;;;2.90;;
47617;SDS011;33336;36.728;-4.414;2022-10-16T18:30:34;11.13;;;3.88;;
47617;SDS011;33336;36.728;-4.414;2022-10-16T18:35:38;12.73;;;2.20;;
47617;SDS011;33336;36.728;-4.414;2022-10-16T18:40:41;8.23;;;2.17;;
47617;SDS011;33336;36.728;-4.414;2022-10-16T18:45:53;8.43;;;2.13;;
47617;SDS011;33336;36.728;-4.414;2022-10-16T18:51:06;15.50;;;3.20;;
47617;SDS011;33336;36.728;-4.414;2022-10-16T18:56:11;12.63;;;3.22;;
47617;SDS011;33336;36.728;-4.414;2022-10-16T19:01:18;12.88;;;3.72;;
47617;SDS011;33336;36.728;-4.414;2022-10-16T19:06:25;9.95;;;4.22;;
47617;SDS011;33336;36.728;-4.414;2022-10-16T19:11:28;14.30;;;5.03;;
47617;SDS011;33336;36.728;-4.414;2022-10-16T19:16:33;14.38;;;5.15;;
47617;SDS011;33336;36.728;-4.414;2022-10-16T19:21:38;14.32;;;3.35;;
47617;SDS011;33336;36.728;-4.414;2022-10-16T19:26:42;14.23;;;3.63;;
47617;SDS011;33336;36.728;-4.414;2022-10-16T19:31:45;14.57;;;4.03;;
47617;SDS011;33336;36.728;-4.414;2022-10-16T19:36:53;11.05;;;4.22;;
47617;SDS011;33336;36.728;-4.414;2022-10-16T19:41:56;12.55;;;4.07;;
47617;SDS011;33336;36.728;-4.414;2022-10-16T19:46:59;10.73;;;2.72;;
47617;SDS011;33336;36.728;-4.414;2022-10-16T19:52:03;11.40;;;2.78;;
47617;SDS011;33336;36.728;-4.414;2022-10-16T19:57:07;9.68;;;2.60;;
47617;SDS011;33336;36.728;-4.414;2022-10-16T20:02:10;13.43;;;2.22;;
47617;SDS011;33336;36.728;-4.414;2022-10-16T20:07:15;11.48;;;3.22;;
47617;SDS011;33336;36.728;-4.414;2022-10-16T20:12:18;12.98;;;3.05;;
47617;SDS011;33336;36.728;-4.414;2022-10-16T20:17:22;9.30;;;2.80;;
47617;SDS011;33336;36.728;-4.414;2022-10-16T20:22:26;14.75;;;2.78;;
47617;SDS011;33336;36.728;-4.414;2022-10-16T20:27:30;21.70;;;3.13;;
47617;SDS011;33336;36.728;-4.414;2022-10-16T20:32:32;27.92;;;4.78;;
47617;SDS011;33336;36.728;-4.414;2022-10-16T20:37:37;24.50;;;3.42;;
47617;SDS011;33336;36.728;-4.414;2022-10-16T20:42:40;16.90;;;3.92;;
47617;SDS011;33336;36.728;-4.414;2022-10-16T20:47:43;13.02;;;3.47;;
47617;SDS011;33336;36.728;-4.414;2022-10-16T20:52:47;15.30;;;3.85;;
47617;SDS011;33336;36.728;-4.414;2022-10-16T20:57:50;17.85;;;3.85;;
47617;SDS011;33336;36.728;-4.414;2022-10-16T21:02:52;10.10;;;2.47;;
47617;SDS011;33336;36.728;-4.414;2022-10-16T21:07:58;7.25;;;1.70;;
47617;SDS011;33336;36.728;-4.414;2022-10-16T21:13:01;8.98;;;2.33;;
47617;SDS011;33336;36.728;-4.414;2022-10-16T21:18:05;7.15;;;1.80;;
47617;SDS011;33336;36.728;-4.414;2022-10-16T21:23:09;8.52;;;2.05;;
47617;SDS011;33336;36.728;-4.414;2022-10-16T21:28:13;10.95;;;2.95;;
47617;SDS011;33336;36.728;-4.414;2022-10-16T21:33:16;7.65;;;2.20;;
47617;SDS011;33336;36.728;-4.414;2022-10-16T21:38:20;10.43;;;2.85;;
47617;SDS011;33336;36.728;-4.414;2022-10-16T21:43:24;11.00;;;2.78;;
47617;SDS011;33336;36.728;-4.414;2022-10-16T21:48:27;15.48;;;3.17;;
47617;SDS011;33336;36.728;-4.414;2022-10-16T21:53:31;11.63;;;3.00;;
47617;SDS011;33336;36.728;-4.414;2022-10-16T21:58:34;8.10;;;2.03;;
47617;SDS011;33336;36.728;-4.414;2022-10-16T22:03:36;13.52;;;2.83;;
47617;SDS011;33336;36.728;-4.414;2022-10-16T22:08:41;14.32;;;2.50;;
47617;SDS011;33336;36.728;-4.414;2022-10-16T22:13:44;13.95;;;1.80;;
47617;SDS011;33336;36.728;-4.414;2022-10-16T22:18:49;11.68;;;2.80;;
47617;SDS011;33336;36.728;-4.414;2022-10-16T22:23:54;10.85;;;3.38;;
47617;SDS011;33336;36.728;-4.414;2022-10-16T22:28:57;16.38;;;3.38;;
47617;SDS011;33336;36.728;-4.414;2022-10-16T22:34:00;11.18;;;2.45;;
47617;SDS011;33336;36.728;-4.414;2022-10-16T22:39:06;10.95;;;2.47;;
47617;SDS011;33336;36.728;-4.414;2022-10-16T22:44:11;19.35;;;2.67;;
47617;SDS011;33336;36.728;-4.414;2022-10-16T22:49:15;14.70;;;3.10;;
47617;SDS011;33336;36.728;-4.414;2022-10-16T22:54:21;11.10;;;3.00;;
47617;SDS011;33336;36.728;-4.414;2022-10-16T22:59:25;19.40;;;3.78;;
47617;SDS011;33336;36.728;-4.414;2022-10-16T23:04:27;14.68;;;3.28;;
47617;SDS011;33336;36.728;-4.414;2022-10-16T23:09:34;16.35;;;3.35;;
47617;SDS011;33336;36.728;-4.414;2022-10-16T23:14:37;14.77;;;4.78;;
47617;SDS011;33336;36.728;-4.414;2022-10-16T23:19:42;18.35;;;3.80;;
47617;SDS011;33336;36.728;-4.414;2022-10-16T23:24:46;14.40;;;2.97;;
47617;SDS011;33336;36.728;-4.414;2022-10-16T23:29:50;10.23;;;2.85;;
47617;SDS011;33336;36.728;-4.414;2022-10-16T23:34:52;15.52;;;3.80;;
47617;SDS011;33336;36.728;-4.414;2022-10-16T23:39:58;13.80;;;3.83;;
47617;SDS011;33336;36.728;-4.414;2022-10-16T23:45:00;16.10;;;3.75;;
47617;SDS011;33336;36.728;-4.414;2022-10-16T23:50:05;12.25;;;4.00;;
47617;SDS011;33336;36.728;-4.414;2022-10-16T23:55:10;11.15;;;3.95;;
